sensor_id;sensor_type;location;lat;lon;timestamp;temperature;humidity
64689;DHT22;62504;46.070;14.492;2024-02-15T00:01:41;6.20;99.90
64689;DHT22;62504;46.070;14.492;2024-02-15T00:04:07;6.30;99.90
64689;DHT22;62504;46.070;14.492;2024-02-15T00:06:33;6.20;99.90
64689;DHT22;62504;46.070;14.492;2024-02-15T00:08:59;6.20;99.90
64689;DHT22;62504;46.070;14.492;2024-02-15T00:11:24;6.10;99.90
64689;DHT22;62504;46.070;14.492;2024-02-15T00:13:50;6.10;99.90
64689;DHT22;62504;46.070;14.492;2024-02-15T00:16:16;6.10;99.90
64689;DHT22;62504;46.070;14.492;2024-02-15T00:18:41;6.10;99.90
64689;DHT22;62504;46.070;14.492;2024-02-15T00:21:07;6.10;99.90
64689;DHT22;62504;46.070;14.492;2024-02-15T00:23:33;6.10;99.90
64689;DHT22;62504;46.070;14.492;2024-02-15T00:25:58;5.90;99.90
64689;DHT22;62504;46.070;14.492;2024-02-15T00:28:25;5.90;99.90
64689;DHT22;62504;46.070;14.492;2024-02-15T00:30:52;5.90;99.90
64689;DHT22;62504;46.070;14.492;2024-02-15T00:33:18;5.90;99.90
64689;DHT22;62504;46.070;14.492;2024-02-15T00:35:44;5.90;99.90
64689;DHT22;62504;46.070;14.492;2024-02-15T00:38:09;5.90;99.90
64689;DHT22;62504;46.070;14.492;2024-02-15T00:40:36;5.90;99.90
64689;DHT22;62504;46.070;14.492;2024-02-15T00:43:01;6.00;99.90
64689;DHT22;62504;46.070;14.492;2024-02-15T00:45:27;6.10;99.90
64689;DHT22;62504;46.070;14.492;2024-02-15T00:47:53;6.10;99.90
64689;DHT22;62504;46.070;14.492;2024-02-15T00:50:19;6.00;99.90
64689;DHT22;62504;46.070;14.492;2024-02-15T00:52:45;6.00;99.90
64689;DHT22;62504;46.070;14.492;2024-02-15T00:55:10;6.00;99.90
64689;DHT22;62504;46.070;14.492;2024-02-15T00:57:36;5.90;99.90
64689;DHT22;62504;46.070;14.492;2024-02-15T01:00:03;5.90;99.90
64689;DHT22;62504;46.070;14.492;2024-02-15T01:02:29;5.90;99.90
64689;DHT22;62504;46.070;14.492;2024-02-15T01:04:54;5.90;99.90
64689;DHT22;62504;46.070;14.492;2024-02-15T01:07:22;6.00;99.90
64689;DHT22;62504;46.070;14.492;2024-02-15T01:09:51;6.00;99.90
64689;DHT22;62504;46.070;14.492;2024-02-15T01:12:17;6.00;99.90
64689;DHT22;62504;46.070;14.492;2024-02-15T01:14:43;6.00;99.90
64689;DHT22;62504;46.070;14.492;2024-02-15T01:17:09;6.00;99.90
64689;DHT22;62504;46.070;14.492;2024-02-15T01:19:34;6.00;99.90
64689;DHT22;62504;46.070;14.492;2024-02-15T01:22:00;6.10;99.90
64689;DHT22;62504;46.070;14.492;2024-02-15T01:24:26;6.10;99.90
64689;DHT22;62504;46.070;14.492;2024-02-15T01:26:52;5.90;99.90
64689;DHT22;62504;46.070;14.492;2024-02-15T01:29:18;5.90;99.90
64689;DHT22;62504;46.070;14.492;2024-02-15T01:31:44;5.90;99.90
64689;DHT22;62504;46.070;14.492;2024-02-15T01:34:10;5.90;99.90
64689;DHT22;62504;46.070;14.492;2024-02-15T01:36:36;5.90;99.90
64689;DHT22;62504;46.070;14.492;2024-02-15T01:39:01;6.00;99.90
64689;DHT22;62504;46.070;14.492;2024-02-15T01:41:27;5.90;99.90
64689;DHT22;62504;46.070;14.492;2024-02-15T01:43:53;5.80;99.90
64689;DHT22;62504;46.070;14.492;2024-02-15T01:46:19;5.60;99.90
64689;DHT22;62504;46.070;14.492;2024-02-15T01:48:46;5.70;99.90
64689;DHT22;62504;46.070;14.492;2024-02-15T01:51:14;5.90;99.90
64689;DHT22;62504;46.070;14.492;2024-02-15T01:53:42;6.00;99.90
64689;DHT22;62504;46.070;14.492;2024-02-15T01:56:08;6.00;99.90
64689;DHT22;62504;46.070;14.492;2024-02-15T01:58:34;6.00;99.90
64689;DHT22;62504;46.070;14.492;2024-02-15T02:01:02;6.10;99.90
64689;DHT22;62504;46.070;14.492;2024-02-15T02:03:28;5.60;99.90
64689;DHT22;62504;46.070;14.492;2024-02-15T02:05:53;5.50;99.90
64689;DHT22;62504;46.070;14.492;2024-02-15T02:08:19;5.60;99.90
64689;DHT22;62504;46.070;14.492;2024-02-15T02:10:45;5.70;99.90
64689;DHT22;62504;46.070;14.492;2024-02-15T02:13:12;5.50;99.90
64689;DHT22;62504;46.070;14.492;2024-02-15T02:15:38;5.50;99.90
64689;DHT22;62504;46.070;14.492;2024-02-15T02:18:04;5.60;99.90
64689;DHT22;62504;46.070;14.492;2024-02-15T02:20:35;5.40;99.90
64689;DHT22;62504;46.070;14.492;2024-02-15T02:23:13;5.60;99.90
64689;DHT22;62504;46.070;14.492;2024-02-15T02:25:39;5.70;99.90
64689;DHT22;62504;46.070;14.492;2024-02-15T02:28:06;5.50;99.90
64689;DHT22;62504;46.070;14.492;2024-02-15T02:30:32;5.50;99.90
64689;DHT22;62504;46.070;14.492;2024-02-15T02:32:58;5.70;99.90
64689;DHT22;62504;46.070;14.492;2024-02-15T02:35:24;5.90;99.90
64689;DHT22;62504;46.070;14.492;2024-02-15T02:37:50;6.00;99.90
64689;DHT22;62504;46.070;14.492;2024-02-15T02:40:18;5.90;99.90
64689;DHT22;62504;46.070;14.492;2024-02-15T02:42:51;5.70;99.90
64689;DHT22;62504;46.070;14.492;2024-02-15T02:45:18;5.40;99.90
64689;DHT22;62504;46.070;14.492;2024-02-15T02:47:48;5.20;99.90
64689;DHT22;62504;46.070;14.492;2024-02-15T02:50:14;5.30;99.90
64689;DHT22;62504;46.070;14.492;2024-02-15T02:52:40;5.40;99.90
64689;DHT22;62504;46.070;14.492;2024-02-15T02:55:06;5.50;99.90
64689;DHT22;62504;46.070;14.492;2024-02-15T02:57:35;5.50;99.90
64689;DHT22;62504;46.070;14.492;2024-02-15T03:00:05;5.60;99.90
64689;DHT22;62504;46.070;14.492;2024-02-15T03:02:34;5.70;99.90
64689;DHT22;62504;46.070;14.492;2024-02-15T03:05:03;5.60;99.90
64689;DHT22;62504;46.070;14.492;2024-02-15T03:07:32;5.70;99.90
64689;DHT22;62504;46.070;14.492;2024-02-15T03:09:59;5.70;99.90
64689;DHT22;62504;46.070;14.492;2024-02-15T03:12:24;5.70;99.90
64689;DHT22;62504;46.070;14.492;2024-02-15T03:14:52;5.60;99.90
64689;DHT22;62504;46.070;14.492;2024-02-15T03:17:18;5.60;99.90
64689;DHT22;62504;46.070;14.492;2024-02-15T03:19:44;5.70;99.90
64689;DHT22;62504;46.070;14.492;2024-02-15T03:22:09;5.70;99.90
64689;DHT22;62504;46.070;14.492;2024-02-15T03:24:39;5.60;99.90
64689;DHT22;62504;46.070;14.492;2024-02-15T03:27:05;5.40;99.90
64689;DHT22;62504;46.070;14.492;2024-02-15T03:29:31;5.50;99.90
64689;DHT22;62504;46.070;14.492;2024-02-15T03:31:56;5.40;99.90
64689;DHT22;62504;46.070;14.492;2024-02-15T03:34:22;5.00;99.90
64689;DHT22;62504;46.070;14.492;2024-02-15T03:36:48;4.70;99.90
64689;DHT22;62504;46.070;14.492;2024-02-15T03:39:19;4.60;99.90
64689;DHT22;62504;46.070;14.492;2024-02-15T03:41:45;4.70;99.90
64689;DHT22;62504;46.070;14.492;2024-02-15T03:44:12;4.80;99.90
64689;DHT22;62504;46.070;14.492;2024-02-15T03:46:38;4.60;99.90
64689;DHT22;62504;46.070;14.492;2024-02-15T03:49:03;4.80;99.90
64689;DHT22;62504;46.070;14.492;2024-02-15T03:51:29;5.00;99.90
64689;DHT22;62504;46.070;14.492;2024-02-15T03:53:54;5.10;99.90
64689;DHT22;62504;46.070;14.492;2024-02-15T03:56:20;5.20;99.90
64689;DHT22;62504;46.070;14.492;2024-02-15T03:58:48;5.20;99.90
64689;DHT22;62504;46.070;14.492;2024-02-15T04:01:16;5.10;99.90
64689;DHT22;62504;46.070;14.492;2024-02-15T04:03:42;5.10;99.90
64689;DHT22;62504;46.070;14.492;2024-02-15T04:06:07;5.10;99.90
64689;DHT22;62504;46.070;14.492;2024-02-15T04:08:35;5.10;99.90
64689;DHT22;62504;46.070;14.492;2024-02-15T04:11:05;5.10;99.90
64689;DHT22;62504;46.070;14.492;2024-02-15T04:13:35;5.00;99.90
64689;DHT22;62504;46.070;14.492;2024-02-15T04:16:01;5.00;99.90
64689;DHT22;62504;46.070;14.492;2024-02-15T04:18:27;5.00;99.90
64689;DHT22;62504;46.070;14.492;2024-02-15T04:20:52;5.00;99.90
64689;DHT22;62504;46.070;14.492;2024-02-15T04:23:18;4.90;99.90
64689;DHT22;62504;46.070;14.492;2024-02-15T04:25:44;5.00;99.90
64689;DHT22;62504;46.070;14.492;2024-02-15T04:28:16;5.00;99.90
64689;DHT22;62504;46.070;14.492;2024-02-15T04:30:42;5.00;99.90
64689;DHT22;62504;46.070;14.492;2024-02-15T04:33:07;5.00;99.90
64689;DHT22;62504;46.070;14.492;2024-02-15T04:35:34;5.00;99.90
64689;DHT22;62504;46.070;14.492;2024-02-15T04:38:01;5.00;99.90
64689;DHT22;62504;46.070;14.492;2024-02-15T04:40:26;5.00;99.90
64689;DHT22;62504;46.070;14.492;2024-02-15T04:42:52;5.00;99.90
64689;DHT22;62504;46.070;14.492;2024-02-15T04:45:18;4.80;99.90
64689;DHT22;62504;46.070;14.492;2024-02-15T04:47:46;4.60;99.90
64689;DHT22;62504;46.070;14.492;2024-02-15T04:50:15;4.50;99.90
64689;DHT22;62504;46.070;14.492;2024-02-15T04:52:43;4.60;99.90
64689;DHT22;62504;46.070;14.492;2024-02-15T04:55:11;4.80;99.90
64689;DHT22;62504;46.070;14.492;2024-02-15T04:57:38;4.80;99.90
64689;DHT22;62504;46.070;14.492;2024-02-15T05:00:04;4.90;99.90
64689;DHT22;62504;46.070;14.492;2024-02-15T05:02:37;4.70;99.90
64689;DHT22;62504;46.070;14.492;2024-02-15T05:05:10;4.30;99.90
64689;DHT22;62504;46.070;14.492;2024-02-15T05:07:38;4.40;99.90
64689;DHT22;62504;46.070;14.492;2024-02-15T05:10:05;4.60;99.90
64689;DHT22;62504;46.070;14.492;2024-02-15T05:12:32;4.50;99.90
64689;DHT22;62504;46.070;14.492;2024-02-15T05:14:59;4.40;99.90
64689;DHT22;62504;46.070;14.492;2024-02-15T05:17:25;4.60;99.90
64689;DHT22;62504;46.070;14.492;2024-02-15T05:19:50;4.80;99.90
64689;DHT22;62504;46.070;14.492;2024-02-15T05:22:16;4.60;99.90
64689;DHT22;62504;46.070;14.492;2024-02-15T05:24:43;4.70;99.90
64689;DHT22;62504;46.070;14.492;2024-02-15T05:27:09;4.60;99.90
64689;DHT22;62504;46.070;14.492;2024-02-15T05:29:35;4.60;99.90
64689;DHT22;62504;46.070;14.492;2024-02-15T05:32:01;4.60;99.90
64689;DHT22;62504;46.070;14.492;2024-02-15T05:34:27;4.60;99.90
64689;DHT22;62504;46.070;14.492;2024-02-15T05:36:55;4.80;99.90
64689;DHT22;62504;46.070;14.492;2024-02-15T05:39:21;4.70;99.90
64689;DHT22;62504;46.070;14.492;2024-02-15T05:41:47;4.80;99.90
64689;DHT22;62504;46.070;14.492;2024-02-15T05:44:14;4.80;99.90
64689;DHT22;62504;46.070;14.492;2024-02-15T05:46:43;4.70;99.90
64689;DHT22;62504;46.070;14.492;2024-02-15T05:49:09;4.80;99.90
64689;DHT22;62504;46.070;14.492;2024-02-15T05:51:41;4.90;99.90
64689;DHT22;62504;46.070;14.492;2024-02-15T05:54:06;4.90;99.90
64689;DHT22;62504;46.070;14.492;2024-02-15T05:56:32;4.90;99.90
64689;DHT22;62504;46.070;14.492;2024-02-15T05:58:58;4.90;99.90
64689;DHT22;62504;46.070;14.492;2024-02-15T06:01:24;4.80;99.90
64689;DHT22;62504;46.070;14.492;2024-02-15T06:03:50;4.90;99.90
64689;DHT22;62504;46.070;14.492;2024-02-15T06:06:20;4.90;99.90
64689;DHT22;62504;46.070;14.492;2024-02-15T06:08:47;4.90;99.90
64689;DHT22;62504;46.070;14.492;2024-02-15T06:11:12;4.70;99.90
64689;DHT22;62504;46.070;14.492;2024-02-15T06:13:40;4.80;99.90
64689;DHT22;62504;46.070;14.492;2024-02-15T06:16:06;4.90;99.90
64689;DHT22;62504;46.070;14.492;2024-02-15T06:18:34;4.80;99.90
64689;DHT22;62504;46.070;14.492;2024-02-15T06:21:00;4.80;99.90
64689;DHT22;62504;46.070;14.492;2024-02-15T06:23:27;5.00;99.90
64689;DHT22;62504;46.070;14.492;2024-02-15T06:25:55;5.00;99.90
64689;DHT22;62504;46.070;14.492;2024-02-15T06:28:24;5.00;99.90
64689;DHT22;62504;46.070;14.492;2024-02-15T06:31:09;5.00;99.90
64689;DHT22;62504;46.070;14.492;2024-02-15T06:33:54;4.90;99.90
64689;DHT22;62504;46.070;14.492;2024-02-15T06:36:49;5.00;99.90
64689;DHT22;62504;46.070;14.492;2024-02-15T06:39:33;5.10;99.90
64689;DHT22;62504;46.070;14.492;2024-02-15T06:42:15;5.20;99.90
64689;DHT22;62504;46.070;14.492;2024-02-15T06:44:44;5.20;99.90
64689;DHT22;62504;46.070;14.492;2024-02-15T06:47:10;5.30;99.90
64689;DHT22;62504;46.070;14.492;2024-02-15T06:49:39;5.50;99.90
64689;DHT22;62504;46.070;14.492;2024-02-15T06:52:06;5.60;99.90
64689;DHT22;62504;46.070;14.492;2024-02-15T06:54:33;5.70;99.90
64689;DHT22;62504;46.070;14.492;2024-02-15T06:57:01;5.70;99.90
64689;DHT22;62504;46.070;14.492;2024-02-15T06:59:27;5.70;99.90
64689;DHT22;62504;46.070;14.492;2024-02-15T07:01:53;5.50;99.90
64689;DHT22;62504;46.070;14.492;2024-02-15T07:04:20;5.50;99.90
64689;DHT22;62504;46.070;14.492;2024-02-15T07:06:46;5.60;99.90
64689;DHT22;62504;46.070;14.492;2024-02-15T07:09:13;5.70;99.90
64689;DHT22;62504;46.070;14.492;2024-02-15T07:11:47;5.60;99.90
64689;DHT22;62504;46.070;14.492;2024-02-15T07:14:13;5.60;99.90
64689;DHT22;62504;46.070;14.492;2024-02-15T07:16:39;5.70;99.90
64689;DHT22;62504;46.070;14.492;2024-02-15T07:19:05;5.90;99.90
64689;DHT22;62504;46.070;14.492;2024-02-15T07:21:34;5.90;99.90
64689;DHT22;62504;46.070;14.492;2024-02-15T07:24:00;6.00;99.90
64689;DHT22;62504;46.070;14.492;2024-02-15T07:26:26;6.00;99.90
64689;DHT22;62504;46.070;14.492;2024-02-15T07:28:53;6.10;99.90
64689;DHT22;62504;46.070;14.492;2024-02-15T07:31:19;6.20;99.90
64689;DHT22;62504;46.070;14.492;2024-02-15T07:33:50;6.40;99.90
64689;DHT22;62504;46.070;14.492;2024-02-15T07:36:22;6.50;99.90
64689;DHT22;62504;46.070;14.492;2024-02-15T07:38:49;6.50;99.90
64689;DHT22;62504;46.070;14.492;2024-02-15T07:41:17;6.70;99.90
64689;DHT22;62504;46.070;14.492;2024-02-15T07:43:51;6.70;99.90
64689;DHT22;62504;46.070;14.492;2024-02-15T07:46:19;6.80;99.90
64689;DHT22;62504;46.070;14.492;2024-02-15T07:48:46;7.60;99.90
64689;DHT22;62504;46.070;14.492;2024-02-15T07:51:16;8.10;99.90
64689;DHT22;62504;46.070;14.492;2024-02-15T07:53:43;8.90;99.90
64689;DHT22;62504;46.070;14.492;2024-02-15T07:56:10;9.30;99.90
64689;DHT22;62504;46.070;14.492;2024-02-15T07:58:42;9.20;99.90
64689;DHT22;62504;46.070;14.492;2024-02-15T08:01:10;9.20;99.90
64689;DHT22;62504;46.070;14.492;2024-02-15T08:03:36;9.40;99.90
64689;DHT22;62504;46.070;14.492;2024-02-15T08:06:02;9.90;99.90
64689;DHT22;62504;46.070;14.492;2024-02-15T08:08:35;9.60;99.90
64689;DHT22;62504;46.070;14.492;2024-02-15T08:11:04;9.90;99.90
64689;DHT22;62504;46.070;14.492;2024-02-15T08:13:30;9.60;99.90
64689;DHT22;62504;46.070;14.492;2024-02-15T08:15:56;9.40;99.90
64689;DHT22;62504;46.070;14.492;2024-02-15T08:18:22;9.70;99.90
64689;DHT22;62504;46.070;14.492;2024-02-15T08:20:47;9.60;99.90
64689;DHT22;62504;46.070;14.492;2024-02-15T08:23:13;8.90;99.90
64689;DHT22;62504;46.070;14.492;2024-02-15T08:25:39;8.40;99.90
64689;DHT22;62504;46.070;14.492;2024-02-15T08:28:07;8.20;99.90
64689;DHT22;62504;46.070;14.492;2024-02-15T08:30:33;8.50;99.90
64689;DHT22;62504;46.070;14.492;2024-02-15T08:32:59;8.30;99.90
64689;DHT22;62504;46.070;14.492;2024-02-15T08:35:24;8.20;99.90
64689;DHT22;62504;46.070;14.492;2024-02-15T08:37:50;8.00;99.90
64689;DHT22;62504;46.070;14.492;2024-02-15T08:40:18;8.30;99.90
64689;DHT22;62504;46.070;14.492;2024-02-15T08:42:50;8.70;99.90
64689;DHT22;62504;46.070;14.492;2024-02-15T08:45:15;8.80;99.90
64689;DHT22;62504;46.070;14.492;2024-02-15T08:47:42;9.00;99.90
64689;DHT22;62504;46.070;14.492;2024-02-15T08:50:09;9.20;99.90
64689;DHT22;62504;46.070;14.492;2024-02-15T08:52:36;9.40;99.90
64689;DHT22;62504;46.070;14.492;2024-02-15T08:55:08;9.50;99.90
64689;DHT22;62504;46.070;14.492;2024-02-15T08:57:35;9.20;99.90
64689;DHT22;62504;46.070;14.492;2024-02-15T09:00:04;8.90;99.90
64689;DHT22;62504;46.070;14.492;2024-02-15T09:02:40;8.90;99.90
64689;DHT22;62504;46.070;14.492;2024-02-15T09:05:06;8.90;99.90
64689;DHT22;62504;46.070;14.492;2024-02-15T09:07:32;9.20;99.90
64689;DHT22;62504;46.070;14.492;2024-02-15T09:09:58;9.10;99.90
64689;DHT22;62504;46.070;14.492;2024-02-15T09:12:24;8.70;99.90
64689;DHT22;62504;46.070;14.492;2024-02-15T09:14:50;8.70;99.90
64689;DHT22;62504;46.070;14.492;2024-02-15T09:17:15;8.70;99.90
64689;DHT22;62504;46.070;14.492;2024-02-15T09:19:41;8.70;99.90
64689;DHT22;62504;46.070;14.492;2024-02-15T09:22:07;8.50;99.90
64689;DHT22;62504;46.070;14.492;2024-02-15T09:24:33;8.60;99.90
64689;DHT22;62504;46.070;14.492;2024-02-15T09:27:02;8.60;99.90
64689;DHT22;62504;46.070;14.492;2024-02-15T09:29:30;8.60;99.90
64689;DHT22;62504;46.070;14.492;2024-02-15T09:31:58;8.40;99.90
64689;DHT22;62504;46.070;14.492;2024-02-15T09:34:27;8.50;99.90
64689;DHT22;62504;46.070;14.492;2024-02-15T09:36:52;8.80;99.90
64689;DHT22;62504;46.070;14.492;2024-02-15T09:39:18;8.70;99.90
64689;DHT22;62504;46.070;14.492;2024-02-15T09:41:43;8.70;99.90
64689;DHT22;62504;46.070;14.492;2024-02-15T09:44:10;9.10;99.90
64689;DHT22;62504;46.070;14.492;2024-02-15T09:46:38;9.30;99.90
64689;DHT22;62504;46.070;14.492;2024-02-15T09:49:07;9.80;99.90
64689;DHT22;62504;46.070;14.492;2024-02-15T09:51:33;10.20;99.90
64689;DHT22;62504;46.070;14.492;2024-02-15T09:54:01;10.30;99.90
64689;DHT22;62504;46.070;14.492;2024-02-15T09:56:28;10.80;99.90
64689;DHT22;62504;46.070;14.492;2024-02-15T09:58:56;10.90;99.90
64689;DHT22;62504;46.070;14.492;2024-02-15T10:01:23;11.20;99.90
64689;DHT22;62504;46.070;14.492;2024-02-15T10:03:50;10.90;99.90
64689;DHT22;62504;46.070;14.492;2024-02-15T10:06:20;10.70;99.90
64689;DHT22;62504;46.070;14.492;2024-02-15T10:08:46;10.70;99.90
64689;DHT22;62504;46.070;14.492;2024-02-15T10:11:13;10.40;99.90
64689;DHT22;62504;46.070;14.492;2024-02-15T10:13:39;10.20;99.90
64689;DHT22;62504;46.070;14.492;2024-02-15T10:16:15;9.90;99.90
64689;DHT22;62504;46.070;14.492;2024-02-15T10:18:41;10.00;99.90
64689;DHT22;62504;46.070;14.492;2024-02-15T10:21:06;10.20;99.90
64689;DHT22;62504;46.070;14.492;2024-02-15T10:23:32;10.60;99.90
64689;DHT22;62504;46.070;14.492;2024-02-15T10:25:58;10.50;99.90
64689;DHT22;62504;46.070;14.492;2024-02-15T10:28:24;10.70;99.90
64689;DHT22;62504;46.070;14.492;2024-02-15T10:30:50;10.90;99.90
64689;DHT22;62504;46.070;14.492;2024-02-15T10:33:19;11.10;99.90
64689;DHT22;62504;46.070;14.492;2024-02-15T10:35:46;11.20;99.90
64689;DHT22;62504;46.070;14.492;2024-02-15T10:38:12;11.30;99.90
64689;DHT22;62504;46.070;14.492;2024-02-15T10:40:39;11.10;99.90
64689;DHT22;62504;46.070;14.492;2024-02-15T10:43:09;10.80;99.90
64689;DHT22;62504;46.070;14.492;2024-02-15T10:45:39;10.40;99.90
64689;DHT22;62504;46.070;14.492;2024-02-15T10:48:08;10.30;99.90
64689;DHT22;62504;46.070;14.492;2024-02-15T10:50:34;10.20;99.90
64689;DHT22;62504;46.070;14.492;2024-02-15T10:52:59;10.20;99.90
64689;DHT22;62504;46.070;14.492;2024-02-15T10:55:46;10.10;99.90
64689;DHT22;62504;46.070;14.492;2024-02-15T10:58:18;10.30;99.90
64689;DHT22;62504;46.070;14.492;2024-02-15T11:00:46;10.40;99.90
64689;DHT22;62504;46.070;14.492;2024-02-15T11:03:22;10.40;99.90
64689;DHT22;62504;46.070;14.492;2024-02-15T11:05:51;10.40;99.90
64689;DHT22;62504;46.070;14.492;2024-02-15T11:08:18;10.50;99.90
64689;DHT22;62504;46.070;14.492;2024-02-15T11:10:44;10.50;99.90
64689;DHT22;62504;46.070;14.492;2024-02-15T11:13:10;10.60;99.90
64689;DHT22;62504;46.070;14.492;2024-02-15T11:18:07;10.80;99.90
64689;DHT22;62504;46.070;14.492;2024-02-15T11:22:59;11.50;99.90
64689;DHT22;62504;46.070;14.492;2024-02-15T11:25:36;11.50;99.90
64689;DHT22;62504;46.070;14.492;2024-02-15T11:30:51;11.70;99.90
64689;DHT22;62504;46.070;14.492;2024-02-15T11:33:35;11.90;99.90
64689;DHT22;62504;46.070;14.492;2024-02-15T11:36:11;11.90;99.90
64689;DHT22;62504;46.070;14.492;2024-02-15T11:38:39;12.00;99.90
64689;DHT22;62504;46.070;14.492;2024-02-15T11:41:10;12.00;99.90
64689;DHT22;62504;46.070;14.492;2024-02-15T11:46:17;11.90;99.90
64689;DHT22;62504;46.070;14.492;2024-02-15T11:48:44;12.00;99.90
64689;DHT22;62504;46.070;14.492;2024-02-15T11:51:24;12.00;99.90
64689;DHT22;62504;46.070;14.492;2024-02-15T11:56:25;11.80;99.90
64689;DHT22;62504;46.070;14.492;2024-02-15T11:59:02;11.70;99.90
64689;DHT22;62504;46.070;14.492;2024-02-15T12:01:31;11.50;99.90
64689;DHT22;62504;46.070;14.492;2024-02-15T12:04:15;11.50;99.90
64689;DHT22;62504;46.070;14.492;2024-02-15T12:06:59;11.60;99.90
64689;DHT22;62504;46.070;14.492;2024-02-15T12:09:43;11.70;99.90
64689;DHT22;62504;46.070;14.492;2024-02-15T12:12:27;11.90;99.90
64689;DHT22;62504;46.070;14.492;2024-02-15T12:15:11;11.70;99.90
64689;DHT22;62504;46.070;14.492;2024-02-15T12:17:55;11.80;99.90
64689;DHT22;62504;46.070;14.492;2024-02-15T12:20:57;11.90;99.90
64689;DHT22;62504;46.070;14.492;2024-02-15T12:23:22;12.00;99.90
64689;DHT22;62504;46.070;14.492;2024-02-15T12:25:52;12.00;99.90
64689;DHT22;62504;46.070;14.492;2024-02-15T12:28:18;12.00;99.90
64689;DHT22;62504;46.070;14.492;2024-02-15T12:30:44;12.00;99.90
64689;DHT22;62504;46.070;14.492;2024-02-15T12:33:11;12.10;99.90
64689;DHT22;62504;46.070;14.492;2024-02-15T12:35:37;11.90;99.90
64689;DHT22;62504;46.070;14.492;2024-02-15T12:38:03;11.70;99.90
64689;DHT22;62504;46.070;14.492;2024-02-15T12:40:35;11.80;99.90
64689;DHT22;62504;46.070;14.492;2024-02-15T12:43:02;11.90;99.90
64689;DHT22;62504;46.070;14.492;2024-02-15T12:45:31;12.10;99.90
64689;DHT22;62504;46.070;14.492;2024-02-15T12:47:57;12.10;99.90
64689;DHT22;62504;46.070;14.492;2024-02-15T12:50:27;12.20;99.90
64689;DHT22;62504;46.070;14.492;2024-02-15T12:52:53;12.10;99.90
64689;DHT22;62504;46.070;14.492;2024-02-15T12:55:22;12.10;99.90
64689;DHT22;62504;46.070;14.492;2024-02-15T12:57:51;12.20;99.90
64689;DHT22;62504;46.070;14.492;2024-02-15T13:00:26;12.10;99.90
64689;DHT22;62504;46.070;14.492;2024-02-15T13:02:54;12.00;99.90
64689;DHT22;62504;46.070;14.492;2024-02-15T13:05:21;12.10;99.90
64689;DHT22;62504;46.070;14.492;2024-02-15T13:07:49;12.10;99.90
64689;DHT22;62504;46.070;14.492;2024-02-15T13:10:15;12.30;99.90
64689;DHT22;62504;46.070;14.492;2024-02-15T13:12:45;12.30;99.90
64689;DHT22;62504;46.070;14.492;2024-02-15T13:15:13;12.50;99.90
64689;DHT22;62504;46.070;14.492;2024-02-15T13:17:47;12.50;99.90
64689;DHT22;62504;46.070;14.492;2024-02-15T13:20:20;12.30;99.90
64689;DHT22;62504;46.070;14.492;2024-02-15T13:22:53;12.40;99.90
64689;DHT22;62504;46.070;14.492;2024-02-15T13:25:19;12.60;99.90
64689;DHT22;62504;46.070;14.492;2024-02-15T13:27:47;12.70;99.90
64689;DHT22;62504;46.070;14.492;2024-02-15T13:30:16;12.80;99.90
64689;DHT22;62504;46.070;14.492;2024-02-15T13:32:49;12.60;99.90
64689;DHT22;62504;46.070;14.492;2024-02-15T13:35:16;12.70;99.90
64689;DHT22;62504;46.070;14.492;2024-02-15T13:37:49;12.70;99.90
64689;DHT22;62504;46.070;14.492;2024-02-15T13:40:15;12.80;99.90
64689;DHT22;62504;46.070;14.492;2024-02-15T13:42:45;12.80;99.90
64689;DHT22;62504;46.070;14.492;2024-02-15T13:47:50;13.00;99.90
64689;DHT22;62504;46.070;14.492;2024-02-15T13:50:17;13.10;99.90
64689;DHT22;62504;46.070;14.492;2024-02-15T13:52:44;13.20;99.90
64689;DHT22;62504;46.070;14.492;2024-02-15T13:55:14;13.20;99.90
64689;DHT22;62504;46.070;14.492;2024-02-15T13:57:49;13.00;99.90
64689;DHT22;62504;46.070;14.492;2024-02-15T14:00:16;12.80;99.90
64689;DHT22;62504;46.070;14.492;2024-02-15T14:02:52;12.80;99.90
64689;DHT22;62504;46.070;14.492;2024-02-15T14:05:19;13.00;99.90
64689;DHT22;62504;46.070;14.492;2024-02-15T14:07:58;13.10;99.90
64689;DHT22;62504;46.070;14.492;2024-02-15T14:10:26;13.10;99.90
64689;DHT22;62504;46.070;14.492;2024-02-15T14:12:53;13.00;99.90
64689;DHT22;62504;46.070;14.492;2024-02-15T14:15:21;13.10;99.90
64689;DHT22;62504;46.070;14.492;2024-02-15T14:17:47;13.00;99.90
64689;DHT22;62504;46.070;14.492;2024-02-15T14:20:13;13.10;99.90
64689;DHT22;62504;46.070;14.492;2024-02-15T14:22:49;13.10;99.90
64689;DHT22;62504;46.070;14.492;2024-02-15T14:25:21;13.20;99.90
64689;DHT22;62504;46.070;14.492;2024-02-15T14:27:47;13.30;99.90
64689;DHT22;62504;46.070;14.492;2024-02-15T14:30:13;13.30;99.90
64689;DHT22;62504;46.070;14.492;2024-02-15T14:32:57;13.40;99.90
64689;DHT22;62504;46.070;14.492;2024-02-15T14:35:35;13.30;99.90
64689;DHT22;62504;46.070;14.492;2024-02-15T14:40:32;13.50;99.90
64689;DHT22;62504;46.070;14.492;2024-02-15T14:42:58;13.30;99.90
64689;DHT22;62504;46.070;14.492;2024-02-15T14:45:25;13.40;99.90
64689;DHT22;62504;46.070;14.492;2024-02-15T14:47:51;13.40;99.90
64689;DHT22;62504;46.070;14.492;2024-02-15T14:50:17;13.30;99.90
64689;DHT22;62504;46.070;14.492;2024-02-15T14:52:43;13.30;99.90
64689;DHT22;62504;46.070;14.492;2024-02-15T14:55:09;13.30;99.90
64689;DHT22;62504;46.070;14.492;2024-02-15T14:57:35;13.20;99.90
64689;DHT22;62504;46.070;14.492;2024-02-15T15:00:07;13.20;99.90
64689;DHT22;62504;46.070;14.492;2024-02-15T15:02:38;13.30;99.90
64689;DHT22;62504;46.070;14.492;2024-02-15T15:05:04;13.20;99.90
64689;DHT22;62504;46.070;14.492;2024-02-15T15:07:48;13.20;99.90
64689;DHT22;62504;46.070;14.492;2024-02-15T15:10:32;13.10;99.90
64689;DHT22;62504;46.070;14.492;2024-02-15T15:13:17;13.10;99.90
64689;DHT22;62504;46.070;14.492;2024-02-15T15:15:44;13.10;99.90
64689;DHT22;62504;46.070;14.492;2024-02-15T15:18:12;13.10;99.90
64689;DHT22;62504;46.070;14.492;2024-02-15T15:20:37;13.10;99.90
64689;DHT22;62504;46.070;14.492;2024-02-15T15:23:04;13.10;99.90
64689;DHT22;62504;46.070;14.492;2024-02-15T15:25:34;13.10;99.90
64689;DHT22;62504;46.070;14.492;2024-02-15T15:28:03;13.10;99.90
64689;DHT22;62504;46.070;14.492;2024-02-15T15:30:29;13.10;99.90
64689;DHT22;62504;46.070;14.492;2024-02-15T15:32:56;13.00;99.90
64689;DHT22;62504;46.070;14.492;2024-02-15T15:35:22;13.00;99.90
64689;DHT22;62504;46.070;14.492;2024-02-15T15:37:49;13.00;99.90
64689;DHT22;62504;46.070;14.492;2024-02-15T15:40:17;12.90;99.90
64689;DHT22;62504;46.070;14.492;2024-02-15T15:42:43;12.80;99.90
64689;DHT22;62504;46.070;14.492;2024-02-15T15:45:09;12.90;99.90
64689;DHT22;62504;46.070;14.492;2024-02-15T15:47:36;12.90;99.90
64689;DHT22;62504;46.070;14.492;2024-02-15T15:50:08;13.00;99.90